M I D A S
Marine Information and Data Acquisition System
Tripno 227 of the Zeeleeuw from 2002-03-21 08:06:56 to 2002-03-21 14:39:55
Back to CruiseResearch ActivitiesStationsMapUnderway DataData graphs

EquipmentUnitsComment
TimeDGPSUTC
LatitudeDGPSDM.mWGS84
LongitudeDGPSDM.mWGS84
HeadingGyrodeg 
SOGDGPSknotsSpeed over ground
COGDGPSdegCourse over ground
DepthEcho soundermeters200 kHz
Missing or incorrect values are displayed as -999
Navigation data collected by the RV Zeeleeuw from 2002-03-21 08:06:56 to 2002-03-21 14:39:55
Time Latitude Longitude Heading SOG COG Depth
2002-03-21 09:08:02 51°14.027 2°53.425 241 12.2 239.7 9
2002-03-21 09:09:02 51°13.924 2°53.147 240.2 12.2 238.7 9.3
2002-03-21 09:10:01 51°13.819 2°52.867 241.2 13.2 239.2 9.5
2002-03-21 09:11:02 51°13.701 2°52.555 240.5 13.6 239 9.6
2002-03-21 09:12:02 51°13.584 2°52.244 239.8 13.7 238.7 9.8
2002-03-21 09:13:01 51°13.465 2°51.944 234.8 13.5 234 9.7
2002-03-21 09:14:01 51°13.345 2°51.638 241 13.7 239.6 9.7
2002-03-21 09:15:01 51°13.225 2°51.331 239.8 13.7 237.4 9.6
2002-03-21 09:16:01 51°13.104 2°51.023 239.5 13.8 238.1 9.7
2002-03-21 09:17:02 51°12.982 2°50.709 239 13.8 237.9 9.6
2002-03-21 09:18:02 51°12.86 2°50.4 239.8 13.8 237.7 9.7
2002-03-21 09:19:02 51°12.741 2°50.09 239.7 13.7 238.3 9.7
2002-03-21 09:20:01 51°12.622 2°49.785 240.2 13.8 238.1 9.6
2002-03-21 09:21:02 51°12.497 2°49.468 239.3 13.9 237.9 9.5
2002-03-21 09:22:02 51°12.376 2°49.155 243.2 13.8 241.1 9.4
2002-03-21 09:23:02 51°12.273 2°48.828 245.2 13.8 242.8 9.5
2002-03-21 09:24:01 51°12.167 2°48.508 245 13.9 242.5 9.6
2002-03-21 09:25:02 51°12.058 2°48.175 244.5 13.9 242.2 9.6
2002-03-21 09:26:01 51°11.953 2°47.853 244.3 13.9 242.3 9.6
2002-03-21 09:27:01 51°11.847 2°47.525 245 13.9 242.9 9.5
2002-03-21 09:28:02 51°11.739 2°47.191 244.3 13.9 242.7 9.2
2002-03-21 09:29:01 51°11.635 2°46.867 244.5 14 242.9 9.1
2002-03-21 09:30:02 51°11.535 2°46.526 251.3 14 248.8 9.1
2002-03-21 09:31:02 51°11.454 2°46.177 250.2 14 248.6 9.4
2002-03-21 09:32:02 51°11.367 2°45.831 251.2 14.1 249.1 9.6
2002-03-21 09:33:02 51°11.282 2°45.483 250.2 14.1 248.3 9.6
2002-03-21 09:34:02 51°11.196 2°45.135 250.8 14.1 248.2 9.6
2002-03-21 09:35:02 51°11.122 2°44.783 260.2 14.1 257.1 9.7
2002-03-21 09:36:02 51°11.097 2°44.412 268.2 14.1 264.6 10.3
2002-03-21 09:37:02 51°11.093 2°44.039 274 14.1 270.4 10.9
2002-03-21 09:38:02 51°11.091 2°43.666 273 14.1 269.8 11.4
2002-03-21 09:39:01 51°11.089 2°43.299 272.3 14.1 269.4 11.3
2002-03-21 09:40:02 51°11.087 2°42.921 272.7 14.1 269.8 11.8
2002-03-21 09:41:02 51°11.092 2°42.55 275.3 14 272.6 11.7
2002-03-21 09:42:02 51°11.096 2°42.183 275.2 13.1 271.8 11.3
2002-03-21 09:43:02 51°11.118 2°41.971 297.5 5.5 290.7 11.4
2002-03-21 09:44:02 51°11.127 2°41.936 313.5 0.2 254.5 -999
2002-03-21 09:45:02 51°11.127 2°41.93 337.2 0.2 285.7 -999
2002-03-21 09:46:02 51°11.135 2°41.922 347.8 0.7 334 11.2
2002-03-21 09:47:02 51°11.15 2°41.908 341.8 1.3 328 11.4
2002-03-21 09:48:02 51°11.169 2°41.892 352.2 1.3 336.5 11.2
2002-03-21 09:49:00 51°11.189 2°41.884 3.3 1.4 351.1 11.3
2002-03-21 09:50:02 51°11.213 2°41.881 14.7 1.4 1.4 11.4
2002-03-21 09:51:01 51°11.234 2°41.884 24.8 1.4 11.8 11.2
2002-03-21 09:52:02 51°11.256 2°41.897 36 1.4 24.7 11.2
2002-03-21 09:53:02 51°11.274 2°41.91 33.5 1.1 19.4 11.2
2002-03-21 09:54:02 51°11.294 2°41.961 90 3.1 89.6 11.2
2002-03-21 09:55:02 51°11.21 2°42 199.3 8 200.9 11
2002-03-21 09:56:02 51°11.136 2°41.791 233 9.7 234.8 11.1
2002-03-21 09:57:01 51°10.997 2°41.633 206 10.9 208 11.4
2002-03-21 09:58:02 51°10.801 2°41.497 199.3 13.5 201 11.4
2002-03-21 09:59:02 51°10.589 2°41.368 194.7 13.7 197 11.1
2002-03-21 10:00:00 51°10.377 2°41.295 191 13.4 191.9 10.1
2002-03-21 10:01:01 51°10.158 2°41.2 193.7 13.6 195 8.8
2002-03-21 10:02:02 51°9.966 2°41.062 221.2 10.5 220.4 8
2002-03-21 10:03:01 51°9.924 2°40.947 275.2 1.1 255.6 8.3
2002-03-21 10:04:02 51°9.925 2°40.928 307.8 1 293.8 -999
2002-03-21 10:05:01 51°9.953 2°40.888 341.2 3.2 329.3 8.4
2002-03-21 10:06:00 51°10.014 2°40.859 4.3 4 353.4 8.8
2002-03-21 10:07:02 51°10.08 2°40.873 28.3 3.8 18.8 9.1
2002-03-21 10:08:02 51°10.129 2°40.929 55.8 3.6 48.5 9.3
2002-03-21 10:09:01 51°10.156 2°41.008 76.3 3.5 72.4 9.4
2002-03-21 10:10:01 51°10.161 2°41.101 99 3.5 98.5 9.1
2002-03-21 10:11:01 51°10.141 2°41.174 120.5 2.6 123.2 8.9
2002-03-21 10:12:02 51°10.114 2°41.218 136.5 2.2 143.4 8.7
2002-03-21 10:13:02 51°10.083 2°41.243 149.8 2.1 158.3 8.5
2002-03-21 10:14:02 51°10.05 2°41.255 162.8 2 172.8 8.3
2002-03-21 10:15:01 51°10.018 2°41.252 184.3 1.9 192.8 8.2
2002-03-21 10:16:02 51°9.988 2°41.229 210.8 2.1 217.1 8.2
2002-03-21 10:17:02 51°9.964 2°41.186 234.8 2.3 235.4 8
2002-03-21 10:18:02 51°9.942 2°41.133 230.2 2.4 234.1 8
2002-03-21 10:19:02 51°9.915 2°41.084 222.5 2.5 227.8 8
2002-03-21 10:20:02 51°9.885 2°41.037 221.8 2.5 223.5 7.8
2002-03-21 10:21:02 51°9.858 2°40.986 241.3 2.5 239.8 7.9
2002-03-21 10:22:02 51°9.848 2°40.919 267.5 2.6 262.7 7.9
2002-03-21 10:23:00 51°9.845 2°40.85 266.7 2.7 265 8
2002-03-21 10:24:02 51°9.838 2°40.775 263.7 2.8 261.2 8
2002-03-21 10:25:02 51°9.83 2°40.701 262 2.9 259.7 8.1
2002-03-21 10:26:02 51°9.82 2°40.626 256 2.9 254.6 8.2
2002-03-21 10:27:02 51°9.803 2°40.554 248.8 2.9 247.8 8.2
2002-03-21 10:28:02 51°9.785 2°40.482 248.8 2.9 248.6 8.3
2002-03-21 10:29:02 51°9.767 2°40.412 247.3 2.8 247.3 8.2
2002-03-21 10:30:02 51°9.751 2°40.349 255.2 2.5 252.1 8.2
2002-03-21 10:31:02 51°9.742 2°40.287 269.8 2.4 263.9 8.4
2002-03-21 10:32:02 51°9.741 2°40.228 280.3 2 271.7 8.4
2002-03-21 10:33:01 51°9.742 2°40.179 281 1.9 273 8.5
2002-03-21 10:34:02 51°9.744 2°40.126 278.8 2.1 273.1 8.6
2002-03-21 10:35:02 51°9.744 2°40.068 274 2.2 268.8 8.6
2002-03-21 10:36:02 51°9.741 2°40.009 267.5 2.3 262.4 8.7
2002-03-21 10:37:02 51°9.733 2°39.95 255.8 2.3 253.2 8.5
2002-03-21 10:38:01 51°9.719 2°39.893 249 2.4 246.4 8.7
2002-03-21 10:39:02 51°9.701 2°39.837 242.7 2.4 240 8.8
2002-03-21 10:40:02 51°9.681 2°39.783 243.2 2.4 241 8.8
2002-03-21 10:41:02 51°9.662 2°39.729 245.8 2.3 243 8.7
2002-03-21 10:42:02 51°9.642 2°39.675 243.5 2.3 240.1 8.7
2002-03-21 10:43:00 51°9.624 2°39.625 243.3 2.2 237 8.7
2002-03-21 10:44:02 51°9.604 2°39.576 242.5 2.1 235.9 8.7
2002-03-21 10:45:02 51°9.585 2°39.527 243.5 2.2 238.2 8.6
2002-03-21 10:46:02 51°9.566 2°39.476 246.2 2.3 242.3 8.7
2002-03-21 10:47:02 51°9.551 2°39.427 256.5 1.9 247.3 8.6
2002-03-21 10:48:02 51°9.544 2°39.382 270.7 1.7 260.6 8.7
2002-03-21 10:49:02 51°9.543 2°39.337 288.8 1.7 276.8 8.7
2002-03-21 10:50:02 51°9.549 2°39.299 305.7 1.2 290.4 8.8
2002-03-21 10:51:00 51°9.556 2°39.276 318 0.9 298.7 8.9
2002-03-21 10:52:02 51°9.563 2°39.259 327.5 0.7 304 8.9
2002-03-21 10:53:02 51°9.568 2°39.248 337 0.5 307.5 8.9
2002-03-21 10:54:02 51°9.572 2°39.242 346.5 0.3 315.6 8.9
2002-03-21 10:55:00 51°9.576 2°39.237 352.7 0.3 316.5 9
2002-03-21 10:56:02 51°9.579 2°39.231 356.2 0.3 311.6 9
2002-03-21 10:57:02 51°9.582 2°39.226 357.7 0.3 313.3 9
2002-03-21 10:58:01 51°9.584 2°39.219 356.2 0.3 306.3 9.1
2002-03-21 10:59:02 51°9.588 2°39.213 352.3 0.4 304 9.1
2002-03-21 11:00:02 51°9.59 2°39.206 351.7 0.2 298.2 9.1
2002-03-21 11:01:02 51°9.592 2°39.199 351.3 0.2 298 9.1
2002-03-21 11:02:00 51°9.594 2°39.192 350 0.3 307.3 9.2
2002-03-21 11:03:02 51°9.597 2°39.187 349.3 0.3 305.7 9.2
2002-03-21 11:04:00 51°9.599 2°39.181 350 0.3 305.9 9.2
2002-03-21 11:05:02 51°9.601 2°39.175 349.5 0.3 305.7 9.2
2002-03-21 11:06:00 51°9.604 2°39.169 348.8 0.3 297.1 9.3
2002-03-21 11:07:02 51°9.607 2°39.162 350.7 0.3 304.1 9.3
2002-03-21 11:08:02 51°9.609 2°39.156 352 0.3 301 9.3
2002-03-21 11:09:02 51°9.612 2°39.149 350.8 0.3 300.1 9.4
2002-03-21 11:10:02 51°9.615 2°39.142 352 0.2 297.4 9.3
2002-03-21 11:11:02 51°9.616 2°39.136 353.7 0.3 293.2 9.5
2002-03-21 11:12:02 51°9.617 2°39.129 353.5 0.3 291 9.5
2002-03-21 11:13:02 51°9.619 2°39.123 353.7 0.3 286 9.5
2002-03-21 11:14:02 51°9.62 2°39.117 355.2 0.3 278.6 9.6
2002-03-21 11:15:02 51°9.62 2°39.11 354.3 0.3 276.2 9.6
2002-03-21 11:16:02 51°9.651 2°39.084 338.8 6.3 331.7 9.6
2002-03-21 11:17:02 51°9.739 2°38.831 282 13 278.4 10.2
2002-03-21 11:18:02 51°9.751 2°38.468 281 14 276.4 11.4
2002-03-21 11:19:00 51°9.777 2°38.109 281.7 14.1 277 13.4
2002-03-21 11:20:02 51°9.807 2°37.725 281.7 14.2 277 14.8
2002-03-21 11:21:02 51°9.831 2°37.352 280.2 14.1 275.1 15.6
2002-03-21 11:22:02 51°9.854 2°36.978 280.8 14.1 275.9 15.5
2002-03-21 11:23:02 51°9.879 2°36.606 280.5 14.1 275.8 16.5
2002-03-21 11:24:02 51°9.901 2°36.233 280.5 14.2 275.6 16.6
2002-03-21 11:25:02 51°9.926 2°35.859 280.5 14.1 276.3 17.1
2002-03-21 11:26:02 51°9.93 2°35.546 258 8 255.4 16.3
2002-03-21 11:27:00 51°9.874 2°35.437 193.3 5.7 199.2 16.9
2002-03-21 11:28:02 51°9.8 2°35.43 173.2 3 181.3 17.7
2002-03-21 11:29:02 51°9.763 2°35.421 185 2.1 192.8 17.6
2002-03-21 11:30:02 51°9.711 2°35.39 208.7 5.2 207.5 17.6
2002-03-21 11:31:00 51°9.656 2°35.304 236.7 4 232.5 18
2002-03-21 11:32:02 51°9.627 2°35.23 248.5 2.7 240.6 18.2
2002-03-21 11:33:01 51°9.61 2°35.183 254.3 1.7 239.9 18
2002-03-21 11:34:00 51°9.599 2°35.153 265.2 1 240.7 18
2002-03-21 11:35:01 51°9.593 2°35.133 280.3 1 257.2 18.2
2002-03-21 11:36:01 51°9.601 2°35.091 316.5 2.3 300.3 18.3
2002-03-21 11:37:00 51°9.624 2°35.033 315.3 2.7 301.6 18.4
2002-03-21 11:38:02 51°9.647 2°34.975 315.3 2.4 302.1 18.4
2002-03-21 11:39:02 51°9.667 2°34.924 313.8 2.1 301.2 17.5
2002-03-21 11:40:02 51°9.685 2°34.878 314 2 300.2 17.5
2002-03-21 11:41:02 51°9.701 2°34.831 307.5 1.9 297.5 17.1
2002-03-21 11:42:00 51°9.713 2°34.787 297.7 1.7 292.3 16.1
2002-03-21 11:43:02 51°9.72 2°34.745 285.8 1.6 279.8 16.1
2002-03-21 11:44:02 51°9.719 2°34.702 259.2 1.7 256.3 15.3
2002-03-21 11:45:00 51°9.702 2°34.658 229.7 2.2 227.2 15.5
2002-03-21 11:46:02 51°9.666 2°34.624 196.7 2.6 199.3 16.4
2002-03-21 11:47:02 51°9.622 2°34.604 198.7 2.7 196.8 16.9
2002-03-21 11:48:02 51°9.583 2°34.58 207 2.3 205.8 17.4
2002-03-21 11:49:01 51°9.554 2°34.554 211.8 1.9 209.6 17.9
2002-03-21 11:50:02 51°9.529 2°34.534 209 1.5 203.3 18.2
2002-03-21 11:51:02 51°9.504 2°34.519 204.5 1.6 201.8 18.5
2002-03-21 11:52:01 51°9.48 2°34.505 201.5 1.4 199.9 18.7
2002-03-21 11:53:02 51°9.46 2°34.495 196 1.1 194.6 18.7
2002-03-21 11:54:02 51°9.445 2°34.491 185.7 0.9 187.3 18.5
2002-03-21 11:55:02 51°9.431 2°34.489 177.5 0.8 184.8 18.2
2002-03-21 11:56:00 51°9.414 2°34.485 179.2 2.2 182.2 17.9
2002-03-21 11:57:02 51°9.355 2°34.374 272.5 7.3 264.4 17.6
2002-03-21 11:58:02 51°9.443 2°34.303 28.5 7.5 20.3 18.4
2002-03-21 11:59:02 51°9.599 2°34.455 42.3 12.5 38.4 16.4
2002-03-21 12:00:02 51°9.768 2°34.66 40.8 12.7 37 13.7
2002-03-21 12:01:02 51°9.939 2°34.857 38.7 12.7 36 10.2
2002-03-21 12:02:02 51°10.106 2°35.061 40 12.7 37.2 10
2002-03-21 12:03:02 51°10.275 2°35.266 40 12.8 36.8 10.4
2002-03-21 12:04:02 51°10.442 2°35.47 42.7 12.6 38.9 9.2
2002-03-21 12:05:02 51°10.609 2°35.672 39 12.7 36.3 9.4
2002-03-21 12:06:02 51°10.778 2°35.876 40.8 12.8 38.2 9.9
2002-03-21 12:07:02 51°10.946 2°36.08 40.5 12.8 37.4 10
2002-03-21 12:08:02 51°11.115 2°36.285 38 12.8 36.2 10.5
2002-03-21 12:09:02 51°11.285 2°36.488 39.5 12.7 36.8 10.7
2002-03-21 12:10:02 51°11.453 2°36.695 40.7 12.8 38.3 11.1
2002-03-21 12:11:01 51°11.62 2°36.893 37 12.8 34.3 11.3
2002-03-21 12:12:01 51°11.787 2°37.099 39.2 12.7 37.3 11.4
2002-03-21 12:13:02 51°11.956 2°37.309 41.2 12.7 36.2 11.7
2002-03-21 12:14:01 51°12.125 2°37.499 39.3 12.6 35.8 11.6
2002-03-21 12:15:01 51°12.303 2°37.672 28.5 12.6 25.8 11.6
2002-03-21 12:16:02 51°12.499 2°37.804 28.8 12.5 25.8 11.8
2002-03-21 12:17:02 51°12.687 2°37.953 29.7 12.7 26.9 12.3
2002-03-21 12:18:02 51°12.877 2°38.1 27.5 12.8 23.7 12.7
2002-03-21 12:19:01 51°13.066 2°38.238 28.5 12.8 25.2 13.3
2002-03-21 12:20:02 51°13.263 2°38.385 27.8 12.9 23.4 13.6
2002-03-21 12:21:02 51°13.45 2°38.537 28.8 12.6 26.2 13.8
2002-03-21 12:22:02 51°13.641 2°38.681 27.3 12.9 24.4 13.8
2002-03-21 12:23:02 51°13.834 2°38.824 27.2 12.8 24.6 13
2002-03-21 12:24:02 51°14.036 2°38.934 16.2 12.8 13.2 12.1
2002-03-21 12:25:02 51°14.218 2°38.846 310.8 12.3 307.9 13.4
2002-03-21 12:26:02 51°14.312 2°38.53 298.7 13.5 294.1 17.2
2002-03-21 12:27:02 51°14.426 2°38.227 300.8 13.3 295.6 16.5
2002-03-21 12:28:02 51°14.537 2°37.921 309.3 13.4 303.3 14.2
2002-03-21 12:29:02 51°14.657 2°37.623 307.8 13.4 302.3 11.7
2002-03-21 12:30:01 51°14.752 2°37.352 295.2 8.9 291.2 9.9
2002-03-21 12:31:02 51°14.758 2°37.276 256.5 0.3 259.5 10.3
2002-03-21 12:32:02 51°14.757 2°37.276 273.3 0.2 118.9 -999
2002-03-21 12:33:01 51°14.754 2°37.286 299.5 0.5 118.7 10.4
2002-03-21 12:34:02 51°14.747 2°37.298 325.5 0.7 131.8 10.2
2002-03-21 12:35:02 51°14.768 2°37.302 15.8 4.3 10.3 10.5
2002-03-21 12:36:02 51°14.828 2°37.496 81.5 11.5 81.2 10.3
2002-03-21 12:37:02 51°14.846 2°37.825 85 12.7 85.5 11.8
2002-03-21 12:38:02 51°14.861 2°38.169 85.5 13 86.4 15
2002-03-21 12:39:02 51°14.876 2°38.511 84.8 13.1 85.9 16.4
2002-03-21 12:40:02 51°14.888 2°38.861 87 13.3 87.9 17
2002-03-21 12:41:02 51°14.902 2°39.207 86.8 13.1 87.7 16.1
2002-03-21 12:42:02 51°14.908 2°39.556 88.5 13.3 89.5 14.4
2002-03-21 12:43:02 51°14.915 2°39.904 84.5 13 85 13.8
2002-03-21 12:44:01 51°14.933 2°40.251 84.7 13.2 84.6 12.7
2002-03-21 12:45:01 51°14.952 2°40.602 85.5 13.6 84.7 12.2
2002-03-21 12:46:02 51°14.969 2°40.959 85.8 13.1 85.2 12.2
2002-03-21 12:47:02 51°14.974 2°41.317 90.5 13.6 90.3 12.7
2002-03-21 12:48:02 51°14.977 2°41.67 88.5 13 88.3 12.8
2002-03-21 12:49:02 51°14.984 2°42.021 90.2 13.4 89.8 12.8
2002-03-21 12:50:02 51°14.984 2°42.371 90.5 13.2 90.2 13.4
2002-03-21 12:51:02 51°14.986 2°42.723 89.3 13.3 89.2 12.3
2002-03-21 12:52:02 51°14.991 2°43.074 88.3 13.2 88.2 13.6
2002-03-21 12:53:02 51°14.994 2°43.426 89.3 13.2 88.8 15.8
2002-03-21 12:54:02 51°14.998 2°43.774 89.2 13 88.5 17.9
2002-03-21 12:55:01 51°15.001 2°44.119 90 13.5 88.7 17.9
2002-03-21 12:56:02 51°15.006 2°44.477 90 13.3 89.8 17
2002-03-21 12:57:02 51°15.008 2°44.824 90.5 13.1 89.9 16.3
2002-03-21 12:58:02 51°15.01 2°45.168 88.8 12.9 89.2 15.3
2002-03-21 12:59:01 51°15.015 2°45.508 88.7 12.9 88 14.1
2002-03-21 13:00:02 51°15.016 2°45.865 90.5 13.4 90.3 12.5
2002-03-21 13:01:02 51°15.023 2°46.211 88.2 13 87.1 11.2
2002-03-21 13:02:02 51°15.028 2°46.56 90.2 13.2 88.6 9.7
2002-03-21 13:03:02 51°15.032 2°46.911 89.8 13.2 89.2 9.3
2002-03-21 13:04:02 51°15.036 2°47.262 91.3 13.5 90.1 9.5
2002-03-21 13:05:02 51°15.038 2°47.619 89.7 13.7 88.8 11.4
2002-03-21 13:06:02 51°15.046 2°47.979 89.8 13.5 89.3 12.9
2002-03-21 13:07:02 51°15.051 2°48.333 89.7 13.2 88.7 12.9
2002-03-21 13:08:02 51°15.054 2°48.682 93.2 13.3 91.5 12.7
2002-03-21 13:09:02 51°15.043 2°49.034 93.3 13.4 92.7 12.8
2002-03-21 13:10:02 51°15.035 2°49.386 91.8 13.4 90.9 12.8
2002-03-21 13:11:02 51°15.027 2°49.737 92.3 13.2 92.5 12.8
2002-03-21 13:12:02 51°15.019 2°50.09 94 13.4 93.2 12.6
2002-03-21 13:13:02 51°15.011 2°50.445 93 13.2 92.7 12.5
2002-03-21 13:14:02 51°15.003 2°50.793 93.2 13.3 91.8 12.2
2002-03-21 13:15:02 51°14.983 2°51.146 95.8 13.3 95.7 11.9
2002-03-21 13:16:02 51°14.963 2°51.498 94.5 13.4 93.9 11.5
2002-03-21 13:17:02 51°14.944 2°51.847 96.8 13.2 95.1 11
2002-03-21 13:18:02 51°14.914 2°52.198 100 13.4 99.3 10.5
2002-03-21 13:19:02 51°14.882 2°52.55 97.7 13.5 97.7 10.1
2002-03-21 13:20:02 51°14.85 2°52.901 98.7 13.4 98.3 9.9
2002-03-21 13:21:02 51°14.819 2°53.255 98.3 13.7 97.9 10.1
2002-03-21 13:22:02 51°14.773 2°53.603 107.8 13.4 107.3 10.2
2002-03-21 13:23:02 51°14.702 2°53.945 108.7 13.9 106.9 10.4
2002-03-21 13:24:02 51°14.628 2°54.279 110.5 13 109.3 10.5
2002-03-21 13:25:02 51°14.545 2°54.586 120.3 12.6 117.8 10.2
2002-03-21 13:26:02 51°14.447 2°54.876 123.5 12.3 120.3 10.2
2002-03-21 13:27:02 51°14.326 2°55.138 131 12.3 128.3 10.1
2002-03-21 13:28:02 51°14.19 2°55.352 148.5 9.7 146.7 10.2
2002-03-21 13:29:02 51°14.092 2°55.429 155.7 5.4 153.6 10.2
2002-03-21 13:30:02 51°14.023 2°55.482 156.7 4.4 153.8 10.2
2002-03-21 13:31:01 51°13.963 2°55.533 156.3 4.3 150.3 10.3
2002-03-21 13:32:02 51°13.908 2°55.575 158.7 3.3 156.8 10.5
2002-03-21 13:33:02 51°13.862 2°55.612 155.7 3 151.3 10.3
2002-03-21 13:34:02 51°13.817 2°55.651 154.2 3.1 150.9 10.7
2002-03-21 13:35:04 51°13.771 2°55.699 142.7 3.3 142.1 10.6
2002-03-21 13:36:06 51°13.731 2°55.764 131.7 3.3 129.2 -999
2002-03-21 13:37:01 51°13.704 2°55.824 126.8 2.7 124.3 9
2002-03-21 13:38:02 51°13.691 2°55.888 107.3 2.5 101.1 8.7
2002-03-21 13:39:02 51°13.688 2°55.901 124.7 0.2 244.8 8.8